createdAt,value
2023-05-10T00:02:21.622Z,9.57
2023-05-10T00:04:49.008Z,9.63
2023-05-10T00:07:18.233Z,9.40
2023-05-10T00:09:45.466Z,9.05
2023-05-10T00:12:12.586Z,8.52
2023-05-10T00:14:39.680Z,10.40
2023-05-10T00:17:06.808Z,9.73
2023-05-10T00:19:34.071Z,9.63
2023-05-10T00:22:02.025Z,8.98
2023-05-10T00:24:29.213Z,9.15
2023-05-10T00:26:56.362Z,8.88
2023-05-10T00:29:23.527Z,9.88
2023-05-10T00:31:50.745Z,10.50
2023-05-10T00:34:17.885Z,10.63
2023-05-10T00:36:45.088Z,10.30
2023-05-10T00:39:12.318Z,9.40
2023-05-10T00:41:39.538Z,10.77
2023-05-10T00:44:06.802Z,10.15
2023-05-10T00:46:34.483Z,9.57
2023-05-10T00:49:02.177Z,10.52
2023-05-10T00:51:29.525Z,9.18
2023-05-10T00:53:57.190Z,10.15
2023-05-10T00:56:25.693Z,9.45
2023-05-10T00:58:52.904Z,8.88
2023-05-10T01:01:21.661Z,8.48
2023-05-10T01:03:49.529Z,8.88
2023-05-10T01:06:16.784Z,9.10
2023-05-10T01:08:44.064Z,8.73
2023-05-10T01:11:11.200Z,7.75
2023-05-10T01:13:40.566Z,8.20
2023-05-10T01:16:08.221Z,7.82
2023-05-10T01:18:41.589Z,7.93
2023-05-10T01:21:34.670Z,8.00
2023-05-10T01:24:15.224Z,7.65
2023-05-10T01:27:01.016Z,9.25
2023-05-10T01:29:51.507Z,8.57
2023-05-10T01:32:52.458Z,8.20
2023-05-10T01:35:53.140Z,8.60
2023-05-10T01:38:41.599Z,8.80
2023-05-10T01:41:34.498Z,9.55
2023-05-10T01:44:42.695Z,8.75
2023-05-10T01:47:26.659Z,9.63
2023-05-10T01:49:57.258Z,8.75
2023-05-10T01:52:30.644Z,8.95
2023-05-10T01:55:06.038Z,9.02
2023-05-10T01:57:40.458Z,8.90
2023-05-10T02:00:09.733Z,7.63
2023-05-10T02:02:43.635Z,8.70
2023-05-10T02:05:12.053Z,7.88
2023-05-10T02:07:39.472Z,7.55
2023-05-10T02:10:09.157Z,8.90
2023-05-10T02:12:48.855Z,9.02
2023-05-10T02:15:22.498Z,9.77
2023-05-10T02:17:50.734Z,9.75
2023-05-10T02:20:20.553Z,9.40
2023-05-10T02:22:50.401Z,8.77
2023-05-10T02:25:19.968Z,8.75
2023-05-10T02:27:48.879Z,8.27
2023-05-10T02:30:17.802Z,7.88
2023-05-10T02:32:46.479Z,9.30
2023-05-10T02:35:14.168Z,8.63
2023-05-10T02:37:42.125Z,7.88
2023-05-10T02:40:12.042Z,8.52
2023-05-10T02:42:43.250Z,8.30
2023-05-10T02:45:14.693Z,8.55
2023-05-10T02:47:42.184Z,8.40
2023-05-10T02:50:09.955Z,8.77
2023-05-10T02:52:51.059Z,8.77
2023-05-10T02:55:23.682Z,9.13
2023-05-10T02:58:01.841Z,8.98
2023-05-10T03:00:29.271Z,8.07
2023-05-10T03:02:56.887Z,7.95
2023-05-10T03:05:24.494Z,8.18
2023-05-10T03:07:52.546Z,7.50
2023-05-10T03:10:20.646Z,7.63
2023-05-10T03:13:16.314Z,8.18
2023-05-10T03:16:11.459Z,7.78
2023-05-10T03:19:04.863Z,7.20
2023-05-10T03:24:09.410Z,7.63
2023-05-10T03:26:37.505Z,8.07
2023-05-10T03:29:06.682Z,8.52
2023-05-10T03:31:34.105Z,7.70
2023-05-10T03:34:01.310Z,7.82
2023-05-10T03:36:29.855Z,8.75
2023-05-10T03:38:56.926Z,9.50
2023-05-10T03:41:24.081Z,8.93
2023-05-10T03:43:51.206Z,8.88
2023-05-10T03:46:18.524Z,8.60
2023-05-10T03:48:45.705Z,9.00
2023-05-10T03:51:12.828Z,9.65
2023-05-10T03:53:39.875Z,8.55
2023-05-10T03:56:07.176Z,9.63
2023-05-10T03:58:34.281Z,10.65
2023-05-10T04:01:01.346Z,8.85
2023-05-10T04:03:28.744Z,8.75
2023-05-10T04:06:03.117Z,10.38
2023-05-10T04:08:30.396Z,9.02
2023-05-10T04:11:10.049Z,9.77
2023-05-10T04:13:37.398Z,9.10
2023-05-10T04:16:05.239Z,10.07
2023-05-10T04:18:33.066Z,9.40
2023-05-10T04:21:00.350Z,9.88
2023-05-10T04:23:28.981Z,8.88
2023-05-10T04:26:03.089Z,10.20
2023-05-10T04:28:30.460Z,9.77
2023-05-10T04:31:08.544Z,10.32
2023-05-10T04:33:36.599Z,9.77
2023-05-10T04:36:04.679Z,9.27
2023-05-10T04:38:31.916Z,8.82
2023-05-10T04:41:07.378Z,9.85
2023-05-10T04:43:34.564Z,10.68
2023-05-10T04:46:01.768Z,10.10
2023-05-10T04:48:28.949Z,11.32
2023-05-10T04:50:56.220Z,10.45
2023-05-10T04:53:23.763Z,9.85
2023-05-10T04:55:50.870Z,10.65
2023-05-10T04:58:18.041Z,11.82
2023-05-10T05:00:45.415Z,9.55
2023-05-10T05:03:12.712Z,10.52
2023-05-10T05:05:39.884Z,10.13
2023-05-10T05:08:07.124Z,10.27
2023-05-10T05:10:34.174Z,9.43
2023-05-10T05:13:01.463Z,8.82
2023-05-10T05:15:28.808Z,10.98
2023-05-10T05:17:56.263Z,10.27
2023-05-10T05:20:23.804Z,9.90
2023-05-10T05:22:51.023Z,9.95
2023-05-10T05:25:18.411Z,9.20
2023-05-10T05:27:45.606Z,10.05
2023-05-10T05:30:13.725Z,10.60
2023-05-10T05:32:41.178Z,9.13
2023-05-10T05:35:08.867Z,9.23
2023-05-10T05:37:36.507Z,10.35
2023-05-10T05:40:04.169Z,9.65
2023-05-10T05:42:32.565Z,9.48
2023-05-10T05:45:00.165Z,9.27
2023-05-10T05:47:27.328Z,9.60
2023-05-10T05:49:54.399Z,8.93
2023-05-10T05:52:22.420Z,8.30
2023-05-10T05:54:49.541Z,9.57
2023-05-10T05:57:17.017Z,9.95
2023-05-10T05:59:45.094Z,8.73
2023-05-10T06:02:12.455Z,9.55
2023-05-10T06:04:41.529Z,10.70
2023-05-10T06:07:10.098Z,11.43
2023-05-10T06:09:37.264Z,10.13
2023-05-10T06:12:04.462Z,10.45
2023-05-10T06:14:31.555Z,10.48
2023-05-10T06:17:00.826Z,9.48
2023-05-10T06:19:28.460Z,9.65
2023-05-10T06:21:55.764Z,8.73
2023-05-10T06:24:22.934Z,9.57
2023-05-10T06:26:51.082Z,10.18
2023-05-10T06:29:18.689Z,9.65
2023-05-10T06:31:45.844Z,10.93
2023-05-10T06:34:13.401Z,9.48
2023-05-10T06:36:40.589Z,11.70
2023-05-10T06:39:08.169Z,11.38
2023-05-10T06:41:35.392Z,12.38
2023-05-10T06:44:02.471Z,12.80
2023-05-10T06:46:29.656Z,11.25
2023-05-10T06:48:56.765Z,11.48
2023-05-10T06:51:24.482Z,12.10
2023-05-10T06:53:51.676Z,11.43
2023-05-10T06:56:18.821Z,11.93
2023-05-10T06:58:46.029Z,10.10
2023-05-10T07:01:13.264Z,10.43
2023-05-10T07:03:40.423Z,12.10
2023-05-10T07:06:13.352Z,9.00
2023-05-10T07:08:45.837Z,10.57
2023-05-10T07:11:13.381Z,10.05
2023-05-10T07:13:42.593Z,11.00
2023-05-10T07:16:09.834Z,9.65
2023-05-10T07:18:37.276Z,11.63
2023-05-10T07:21:04.708Z,10.57
2023-05-10T07:23:32.109Z,11.27
2023-05-10T07:25:59.345Z,10.23
2023-05-10T07:28:26.569Z,11.85
2023-05-10T07:30:53.747Z,11.13
2023-05-10T07:33:20.948Z,10.82
2023-05-10T07:35:48.199Z,11.13
2023-05-10T07:38:15.533Z,9.10
2023-05-10T07:40:42.619Z,11.63
2023-05-10T07:43:09.683Z,11.35
2023-05-10T07:45:37.036Z,11.95
2023-05-10T07:48:04.470Z,11.40
2023-05-10T07:50:31.884Z,11.52
2023-05-10T07:52:59.221Z,11.93
2023-05-10T07:55:26.334Z,12.23
2023-05-10T07:57:53.445Z,10.85
2023-05-10T08:00:21.664Z,11.90
2023-05-10T08:02:49.391Z,12.73
2023-05-10T08:05:17.058Z,12.57
2023-05-10T08:07:44.407Z,12.32
2023-05-10T08:10:14.921Z,13.77
2023-05-10T08:12:42.091Z,12.45
2023-05-10T08:15:10.258Z,11.82
2023-05-10T08:17:37.576Z,13.80
2023-05-10T08:20:05.119Z,13.70
2023-05-10T08:22:32.233Z,12.27
2023-05-10T08:24:59.640Z,13.45
2023-05-10T08:27:26.800Z,12.75
2023-05-10T08:29:53.950Z,13.38
2023-05-10T08:32:21.126Z,12.45
2023-05-10T08:34:48.254Z,14.38
2023-05-10T08:37:15.917Z,12.98
2023-05-10T08:39:43.159Z,13.20
2023-05-10T08:42:10.898Z,11.48
2023-05-10T08:44:38.324Z,11.80
2023-05-10T08:47:10.281Z,13.75
2023-05-10T08:49:39.057Z,12.98
2023-05-10T08:52:08.618Z,13.57
2023-05-10T08:54:36.185Z,12.85
2023-05-10T08:57:03.458Z,13.40
2023-05-10T08:59:30.921Z,13.20
2023-05-10T09:02:00.458Z,14.20
2023-05-10T09:04:27.780Z,13.10
2023-05-10T09:06:55.662Z,15.18
2023-05-10T09:09:23.424Z,13.52
2023-05-10T09:11:50.547Z,11.48
2023-05-10T09:14:18.835Z,11.55
2023-05-10T09:16:46.285Z,12.77
2023-05-10T09:19:13.612Z,13.30
2023-05-10T09:21:40.935Z,11.77
2023-05-10T09:24:09.718Z,12.20
2023-05-10T09:26:46.784Z,12.57
2023-05-10T09:29:15.998Z,13.30
2023-05-10T09:31:46.382Z,12.35
2023-05-10T09:34:18.389Z,12.10
2023-05-10T09:36:56.485Z,12.38
2023-05-10T09:39:33.185Z,13.40
2023-05-10T09:42:04.913Z,12.70
2023-05-10T09:44:34.006Z,13.03
2023-05-10T09:47:05.188Z,14.05
2023-05-10T09:49:32.756Z,13.40
2023-05-10T09:52:04.548Z,13.77
2023-05-10T09:54:32.972Z,14.50
2023-05-10T09:57:00.756Z,14.02
2023-05-10T09:59:29.535Z,13.40
2023-05-10T10:02:01.610Z,13.88
2023-05-10T10:04:29.766Z,13.05
2023-05-10T10:07:05.033Z,13.20
2023-05-10T10:09:33.169Z,12.38
2023-05-10T10:12:01.744Z,12.52
2023-05-10T10:14:29.966Z,13.07
2023-05-10T10:17:07.283Z,12.65
2023-05-10T10:19:37.292Z,12.32
2023-05-10T10:22:05.290Z,13.23
2023-05-10T10:24:32.834Z,12.75
2023-05-10T10:27:22.864Z,12.57
2023-05-10T10:30:43.505Z,11.57
2023-05-10T10:33:38.497Z,11.75
2023-05-10T10:36:06.615Z,11.57
2023-05-10T10:39:00.720Z,11.65
2023-05-10T10:41:35.144Z,11.75
2023-05-10T10:44:27.274Z,10.63
2023-05-10T10:47:26.303Z,12.18
2023-05-10T10:50:07.484Z,11.93
2023-05-10T10:52:36.996Z,12.43
2023-05-10T10:55:10.498Z,10.63
2023-05-10T10:58:01.261Z,11.52
2023-05-10T11:00:47.809Z,12.43
2023-05-10T11:03:20.023Z,12.00
2023-05-10T11:05:50.870Z,11.60
2023-05-10T11:08:29.142Z,11.82
2023-05-10T11:11:03.327Z,10.77
2023-05-10T11:13:36.662Z,11.77
2023-05-10T11:16:27.931Z,12.93
2023-05-10T11:19:08.351Z,10.60
2023-05-10T11:21:45.956Z,11.82
2023-05-10T11:24:19.239Z,11.93
2023-05-10T11:26:46.905Z,12.52
2023-05-10T11:29:15.098Z,10.57
2023-05-10T11:31:47.065Z,11.80
2023-05-10T11:34:26.143Z,14.10
2023-05-10T11:36:57.911Z,13.45
2023-05-10T11:39:29.469Z,11.43
2023-05-10T11:41:57.669Z,10.60
2023-05-10T11:44:30.141Z,11.13
2023-05-10T11:47:03.339Z,12.45
2023-05-10T11:49:30.776Z,12.55
2023-05-10T11:52:08.650Z,12.85
2023-05-10T11:54:36.404Z,13.45
2023-05-10T11:57:04.423Z,10.93
2023-05-10T11:59:31.739Z,10.27
2023-05-10T12:01:59.230Z,13.02
2023-05-10T12:04:27.356Z,12.07
2023-05-10T12:06:54.502Z,12.38
2023-05-10T12:09:35.459Z,11.57
2023-05-10T12:12:08.906Z,13.63
2023-05-10T12:14:37.012Z,12.48
2023-05-10T12:17:04.242Z,14.48
2023-05-10T12:19:39.659Z,15.50
2023-05-10T12:22:07.503Z,16.52
2023-05-10T12:24:41.382Z,13.63
2023-05-10T12:27:11.407Z,15.85
2023-05-10T12:29:44.898Z,13.55
2023-05-10T12:32:12.486Z,15.05
2023-05-10T12:34:39.963Z,14.75
2023-05-10T12:37:07.259Z,17.27
2023-05-10T12:39:47.246Z,14.18
2023-05-10T12:42:14.419Z,16.15
2023-05-10T12:44:41.610Z,15.88
2023-05-10T12:47:08.822Z,14.98
2023-05-10T12:49:36.071Z,15.65
2023-05-10T12:52:03.692Z,18.00
2023-05-10T12:54:31.070Z,16.52
2023-05-10T12:56:58.240Z,15.43
2023-05-10T12:59:25.527Z,14.57
2023-05-10T13:01:53.157Z,16.58
2023-05-10T13:04:20.198Z,14.95
2023-05-10T13:06:47.603Z,19.02
2023-05-10T13:09:14.750Z,17.25
2023-05-10T13:11:42.217Z,15.77
2023-05-10T13:14:09.280Z,14.55
2023-05-10T13:16:36.960Z,14.35
2023-05-10T13:19:04.267Z,14.00
2023-05-10T13:21:31.655Z,15.63
2023-05-10T13:23:59.233Z,16.25
2023-05-10T13:26:26.690Z,14.40
2023-05-10T13:28:53.898Z,16.20
2023-05-10T13:31:21.823Z,15.82
2023-05-10T13:33:49.058Z,15.45
2023-05-10T13:36:16.132Z,16.80
2023-05-10T13:38:43.516Z,15.63
2023-05-10T13:41:11.218Z,18.70
2023-05-10T13:43:38.434Z,19.23
2023-05-10T13:46:05.829Z,15.85
2023-05-10T13:48:33.137Z,16.20
2023-05-10T13:51:01.905Z,14.77
2023-05-10T13:53:29.001Z,16.30
2023-05-10T13:55:56.088Z,15.23
2023-05-10T13:58:23.163Z,13.32
2023-05-10T14:00:50.946Z,15.68
2023-05-10T14:03:18.363Z,15.45
2023-05-10T14:05:46.616Z,13.48
2023-05-10T14:08:14.419Z,13.98
2023-05-10T14:10:41.661Z,13.27
2023-05-10T14:13:09.360Z,15.70
2023-05-10T14:15:36.473Z,17.80
2023-05-10T14:18:03.860Z,15.88
2023-05-10T14:20:31.137Z,17.88
2023-05-10T14:22:58.548Z,18.67
2023-05-10T14:25:25.975Z,18.08
2023-05-10T14:27:56.304Z,16.00
2023-05-10T14:32:55.174Z,17.17
2023-05-10T14:35:22.573Z,17.00
2023-05-10T14:37:49.926Z,17.48
2023-05-10T14:40:19.076Z,18.63
2023-05-10T14:42:46.202Z,19.08
2023-05-10T14:45:13.850Z,16.13
2023-05-10T14:47:41.008Z,19.65
2023-05-10T14:50:09.059Z,17.35
2023-05-10T14:52:36.675Z,14.18
2023-05-10T14:55:04.065Z,15.00
2023-05-10T14:57:31.325Z,17.33
2023-05-10T14:59:58.808Z,12.85
2023-05-10T15:02:26.495Z,12.95
2023-05-10T15:04:54.186Z,25.27
2023-05-10T15:07:21.988Z,18.70
2023-05-10T15:09:49.564Z,15.15
2023-05-10T15:12:16.814Z,13.68
2023-05-10T15:14:43.942Z,14.65
2023-05-10T15:17:11.530Z,14.50
2023-05-10T15:19:38.774Z,12.02
2023-05-10T15:22:06.377Z,13.48
2023-05-10T15:24:33.469Z,13.68
2023-05-10T15:27:01.218Z,14.07
2023-05-10T15:29:35.898Z,15.57
2023-05-10T15:32:04.910Z,14.60
2023-05-10T15:34:34.830Z,13.75
2023-05-10T15:37:02.216Z,11.27
2023-05-10T15:39:29.370Z,11.77
2023-05-10T15:41:56.435Z,13.73
2023-05-10T15:44:23.877Z,13.00
2023-05-10T15:46:50.971Z,16.02
2023-05-10T15:49:18.814Z,15.30
2023-05-10T15:51:46.059Z,13.15
2023-05-10T15:54:13.294Z,15.63
2023-05-10T15:56:45.048Z,16.35
2023-05-10T15:59:12.730Z,13.93
2023-05-10T16:01:40.736Z,16.50
2023-05-10T16:04:14.797Z,14.88
2023-05-10T16:06:42.815Z,17.55
2023-05-10T16:09:11.404Z,18.73
2023-05-10T16:11:39.127Z,18.38
2023-05-10T16:14:07.332Z,16.75
2023-05-10T16:16:35.277Z,13.93
2023-05-10T16:19:04.168Z,14.30
2023-05-10T16:21:33.257Z,17.58
2023-05-10T16:24:03.114Z,17.02
2023-05-10T16:26:35.668Z,18.85
2023-05-10T16:29:03.390Z,18.35
2023-05-10T16:31:30.665Z,17.10
2023-05-10T16:33:57.733Z,19.52
2023-05-10T16:36:24.936Z,16.48
2023-05-10T16:38:52.380Z,20.58
2023-05-10T16:41:19.558Z,24.27
2023-05-10T16:43:46.942Z,29.77
2023-05-10T16:46:14.248Z,31.35
2023-05-10T16:48:41.751Z,33.50
2023-05-10T16:51:09.415Z,26.40
2023-05-10T16:53:42.191Z,27.08
2023-05-10T16:56:11.420Z,25.75
2023-05-10T16:58:40.505Z,26.80
2023-05-10T17:01:07.677Z,23.77
2023-05-10T17:03:35.542Z,24.60
2023-05-10T17:06:02.728Z,31.95
2023-05-10T17:08:29.917Z,27.73
2023-05-10T17:10:57.070Z,26.20
2023-05-10T17:13:24.173Z,24.23
2023-05-10T17:15:51.514Z,23.13
2023-05-10T17:18:21.982Z,26.80
2023-05-10T17:20:52.490Z,26.15
2023-05-10T17:23:22.779Z,26.75
2023-05-10T17:25:50.175Z,28.77
2023-05-10T17:28:17.483Z,28.83
2023-05-10T17:30:44.769Z,26.67
2023-05-10T17:33:13.076Z,26.15
2023-05-10T17:35:40.212Z,30.52
2023-05-10T17:38:07.348Z,23.15
2023-05-10T17:40:35.575Z,23.75
2023-05-10T17:43:03.865Z,31.60
2023-05-10T17:45:37.018Z,33.83
2023-05-10T17:48:05.112Z,30.48
2023-05-10T17:50:33.595Z,27.55
2023-05-10T17:53:05.881Z,26.55
2023-05-10T17:58:12.147Z,28.52
2023-05-10T18:00:44.496Z,28.42
2023-05-10T18:03:17.118Z,29.45
2023-05-10T18:05:47.473Z,33.85
2023-05-10T18:08:15.366Z,27.90
2023-05-10T18:10:42.677Z,29.80
2023-05-10T18:13:10.526Z,31.17
2023-05-10T18:15:38.175Z,32.05
2023-05-10T18:18:09.164Z,30.08
2023-05-10T18:20:42.296Z,31.50
2023-05-10T18:23:16.036Z,31.73
2023-05-10T18:25:50.581Z,33.10
2023-05-10T18:28:24.450Z,35.95
2023-05-10T18:30:58.155Z,35.55
2023-05-10T18:33:32.606Z,33.75
2023-05-10T18:36:06.475Z,34.72
2023-05-10T18:38:39.649Z,41.60
2023-05-10T18:41:07.679Z,41.13
2023-05-10T18:43:35.964Z,78.18
2023-05-10T18:46:04.217Z,50.95
2023-05-10T18:48:33.247Z,44.65
2023-05-10T18:51:02.466Z,47.30
2023-05-10T18:53:31.061Z,41.03
2023-05-10T18:56:00.482Z,43.15
2023-05-10T18:58:32.573Z,36.78
2023-05-10T19:01:00.046Z,34.15
2023-05-10T19:03:30.065Z,33.67
2023-05-10T19:06:00.081Z,41.33
2023-05-10T19:08:28.529Z,46.65
2023-05-10T19:10:57.012Z,43.38
2023-05-10T19:13:25.784Z,46.88
2023-05-10T19:16:12.719Z,44.88
2023-05-10T19:18:42.590Z,49.60
2023-05-10T19:21:12.809Z,49.78
2023-05-10T19:23:43.329Z,52.95
2023-05-10T19:26:15.805Z,55.47
2023-05-10T19:28:51.072Z,56.03
2023-05-10T19:31:25.946Z,53.47
2023-05-10T19:33:57.084Z,53.78
2023-05-10T19:36:27.588Z,58.25
2023-05-10T19:39:05.302Z,69.18
2023-05-10T19:41:36.824Z,55.10
2023-05-10T19:44:06.046Z,55.10
2023-05-10T19:46:37.546Z,46.78
2023-05-10T19:49:05.990Z,50.13
2023-05-10T19:51:36.202Z,46.88
2023-05-10T19:54:05.248Z,42.83
2023-05-10T19:56:35.147Z,40.22
2023-05-10T19:59:06.234Z,39.63
2023-05-10T20:01:35.658Z,42.90
2023-05-10T20:04:05.940Z,38.13
2023-05-10T20:06:37.418Z,40.38
2023-05-10T20:09:06.950Z,42.55
2023-05-10T20:11:44.811Z,39.75
2023-05-10T20:14:13.719Z,41.05
2023-05-10T20:16:46.187Z,42.42
2023-05-10T20:21:44.115Z,38.75
2023-05-10T20:24:19.492Z,37.97
2023-05-10T20:26:55.787Z,43.78
2023-05-10T20:29:34.281Z,40.35
2023-05-10T20:32:03.849Z,42.80
2023-05-10T20:34:40.499Z,38.58
2023-05-10T20:37:15.129Z,43.55
2023-05-10T20:39:47.037Z,45.58
2023-05-10T20:42:18.869Z,43.50
2023-05-10T20:44:47.688Z,39.80
2023-05-10T20:47:21.583Z,39.33
2023-05-10T20:49:51.155Z,42.85
2023-05-10T20:52:24.670Z,39.97
2023-05-10T20:54:57.599Z,36.50
2023-05-10T20:57:28.307Z,36.08
2023-05-10T20:59:58.798Z,36.58
2023-05-10T21:02:29.092Z,42.63
2023-05-10T21:04:57.878Z,37.00
2023-05-10T21:07:25.824Z,36.17
2023-05-10T21:09:53.160Z,37.55
2023-05-10T21:12:24.408Z,37.95
2023-05-10T21:14:55.704Z,36.25
2023-05-10T21:17:23.107Z,35.10
2023-05-10T21:19:50.676Z,33.38
2023-05-10T21:22:24.505Z,41.28
2023-05-10T21:24:53.195Z,40.47
2023-05-10T21:27:20.721Z,33.28
2023-05-10T21:29:47.989Z,36.90
2023-05-10T21:32:26.487Z,31.52
2023-05-10T21:34:59.006Z,34.05
2023-05-10T21:37:31.879Z,30.52
2023-05-10T21:40:04.674Z,28.27
2023-05-10T21:42:34.913Z,31.38
2023-05-10T21:45:04.754Z,36.60
2023-05-10T21:47:33.112Z,32.67
2023-05-10T21:50:01.133Z,30.40
2023-05-10T21:52:28.570Z,33.67
2023-05-10T21:54:55.802Z,35.97
2023-05-10T21:57:23.569Z,31.13
2023-05-10T21:59:51.141Z,29.15
2023-05-10T22:02:18.445Z,29.48
2023-05-10T22:04:45.810Z,34.92
2023-05-10T22:07:13.692Z,30.67
2023-05-10T22:09:40.988Z,30.30
2023-05-10T22:12:08.212Z,30.88
2023-05-10T22:14:35.383Z,29.40
2023-05-10T22:17:02.677Z,26.67
2023-05-10T22:19:30.049Z,27.90
2023-05-10T22:21:57.395Z,29.65
2023-05-10T22:24:24.605Z,28.17
2023-05-10T22:26:55.210Z,28.02
2023-05-10T22:29:23.427Z,27.13
2023-05-10T22:31:50.685Z,27.13
2023-05-10T22:34:18.956Z,26.60
2023-05-10T22:36:46.875Z,23.77
2023-05-10T22:39:14.135Z,23.08
2023-05-10T22:41:41.282Z,25.67
2023-05-10T22:44:08.865Z,24.77
2023-05-10T22:46:37.338Z,23.23
2023-05-10T22:49:04.570Z,22.30
2023-05-10T22:51:31.784Z,23.75
2023-05-10T22:53:58.910Z,22.83
2023-05-10T22:56:26.210Z,23.77
2023-05-10T22:58:53.901Z,22.35
2023-05-10T23:01:21.085Z,22.52
2023-05-10T23:03:48.239Z,20.20
2023-05-10T23:06:15.370Z,19.52
2023-05-10T23:08:43.475Z,21.20
2023-05-10T23:11:10.800Z,22.20
2023-05-10T23:13:38.195Z,21.90
2023-05-10T23:16:06.736Z,21.00
2023-05-10T23:18:33.911Z,21.35
2023-05-10T23:21:01.166Z,20.95
2023-05-10T23:23:28.456Z,22.70
2023-05-10T23:25:55.622Z,21.83
2023-05-10T23:28:22.809Z,22.13
2023-05-10T23:30:56.132Z,19.67
2023-05-10T23:33:24.028Z,22.33
2023-05-10T23:35:51.510Z,20.27
2023-05-10T23:38:18.721Z,21.60
2023-05-10T23:40:49.886Z,21.20
2023-05-10T23:43:18.089Z,20.35
2023-05-10T23:45:53.906Z,21.00
2023-05-10T23:48:21.324Z,17.90
2023-05-10T23:50:48.685Z,18.60
2023-05-10T23:53:16.868Z,19.38
2023-05-10T23:55:44.287Z,19.08
2023-05-10T23:58:11.816Z,19.08
